Time;durP1;ratioP1;P1;durP2;ratioP2;P2;SDS_P1;SDS_P2;PMS_P1;PMS_P2;Temp;Humidity;BMP_temperature;BMP_pressure;BME280_temperature;BME280_humidity;BME280_pressure;Samples;Min_cycle;Max_cycle;Signal;HPM_P1;HPM_P2
2024/04/11 00:01:34;;;;;;;6.68;3.33;;;4.10;99.90;;;;;;5410719;26;20035;-77
2024/04/11 00:03:59;;;;;;;4.88;3.00;;;4.10;99.90;;;;;;5411755;26;20003;-77
2024/04/11 00:06:25;;;;;;;7.38;3.00;;;4.00;99.90;;;;;;5412689;26;20125;-77
2024/04/11 00:08:50;;;;;;;4.78;2.75;;;3.90;99.90;;;;;;5412128;26;20650;-76
2024/04/11 00:11:18;;;;;;;9.38;3.25;;;3.80;99.90;;;;;;5412775;26;19999;-78
2024/04/11 00:13:44;;;;;;;4.60;3.00;;;3.70;99.90;;;;;;5412404;26;20000;-77
2024/04/11 00:16:10;;;;;;;4.72;2.55;;;3.80;99.90;;;;;;5411213;26;20039;-78
2024/04/11 00:18:39;;;;;;;9.25;2.97;;;3.80;99.90;;;;;;5411552;26;20031;-78
2024/04/11 00:21:05;;;;;;;4.07;2.35;;;3.70;99.90;;;;;;5412675;26;20011;-77
2024/04/11 00:23:30;;;;;;;3.63;2.55;;;3.50;99.90;;;;;;5412405;26;20000;-76
2024/04/11 00:25:58;;;;;;;4.07;2.67;;;3.60;99.90;;;;;;5412912;26;20006;-76
2024/04/11 00:28:25;;;;;;;7.32;2.72;;;3.70;99.90;;;;;;5412023;26;20069;-76
2024/04/11 00:30:51;;;;;;;7.63;3.30;;;3.70;99.90;;;;;;5401758;26;20014;-76
2024/04/11 00:33:17;;;;;;;7.50;3.15;;;3.70;99.90;;;;;;5411010;26;20745;-75
2024/04/11 00:35:42;;;;;;;5.68;3.13;;;3.70;99.90;;;;;;5411881;26;20007;-78
2024/04/11 00:38:10;;;;;;;6.78;3.20;;;3.70;99.90;;;;;;5412017;26;20080;-75
2024/04/11 00:40:36;;;;;;;6.30;2.60;;;3.50;99.90;;;;;;5412139;26;19999;-78
2024/04/11 00:43:02;;;;;;;3.95;2.75;;;3.30;99.90;;;;;;5410772;26;20110;-79
2024/04/11 00:45:28;;;;;;;7.65;2.78;;;3.20;99.90;;;;;;5411884;26;20003;-77
2024/04/11 00:47:54;;;;;;;5.40;3.22;;;3.10;99.90;;;;;;5399688;26;20525;-77
2024/04/11 00:50:20;;;;;;;3.53;2.58;;;3.20;99.90;;;;;;5396646;26;20004;-76
2024/04/11 00:52:48;;;;;;;6.82;2.85;;;3.10;99.90;;;;;;5390267;26;20027;-77
2024/04/11 00:55:15;;;;;;;8.70;2.92;;;3.10;99.90;;;;;;5409230;26;20007;-76
2024/04/11 00:57:40;;;;;;;3.35;2.85;;;3.20;99.90;;;;;;5408440;26;19999;-76
2024/04/11 01:00:06;;;;;;;5.47;3.22;;;3.30;99.90;;;;;;5408965;26;20011;-77
2024/04/11 01:02:33;;;;;;;4.18;2.67;;;3.30;99.90;;;;;;5358366;26;19995;-76
2024/04/11 01:05:00;;;;;;;8.00;3.03;;;3.30;99.90;;;;;;5400644;26;20018;-76
2024/04/11 01:07:26;;;;;;;5.10;2.45;;;3.30;99.90;;;;;;5408736;26;20003;-76
2024/04/11 01:09:52;;;;;;;7.63;3.13;;;3.20;99.90;;;;;;5410209;26;20010;-76
2024/04/11 01:12:18;;;;;;;5.65;2.88;;;3.20;99.90;;;;;;5411420;26;20010;-76
2024/04/11 01:14:45;;;;;;;8.25;2.60;;;3.10;99.90;;;;;;5408802;26;20015;-75
2024/04/11 01:17:15;;;;;;;3.67;2.72;;;2.90;99.90;;;;;;5407243;26;20908;-77
2024/04/11 01:19:47;;;;;;;3.38;2.30;;;2.80;99.90;;;;;;5398561;26;19996;-77
2024/04/11 01:22:13;;;;;;;2.53;2.22;;;2.80;99.90;;;;;;5408226;26;20055;-78
2024/04/11 01:24:42;;;;;;;4.05;2.60;;;2.70;99.90;;;;;;5407764;26;20057;-77
2024/04/11 01:27:08;;;;;;;5.28;2.50;;;2.50;99.90;;;;;;5407905;26;20073;-77
2024/04/11 01:29:38;;;;;;;4.15;2.35;;;2.60;99.90;;;;;;5389201;26;20007;-77
2024/04/11 01:32:05;;;;;;;4.32;2.30;;;2.60;99.90;;;;;;5374773;26;20008;-76
2024/04/11 01:34:31;;;;;;;6.43;2.42;;;2.70;99.90;;;;;;5373790;26;20395;-77
2024/04/11 01:36:58;;;;;;;4.38;2.55;;;2.80;99.90;;;;;;5375835;26;20050;-77
2024/04/11 01:39:24;;;;;;;4.53;2.38;;;2.70;99.90;;;;;;5374984;26;20416;-75
2024/04/11 01:41:50;;;;;;;7.05;3.05;;;2.60;99.90;;;;;;5375592;26;20000;-76
2024/04/11 01:44:15;;;;;;;9.13;3.05;;;2.80;99.90;;;;;;5375775;26;19999;-77
2024/04/11 01:46:42;;;;;;;10.57;3.08;;;2.90;99.90;;;;;;5374093;26;20011;-77
2024/04/11 01:49:08;;;;;;;5.25;3.20;;;3.00;99.90;;;;;;5375360;26;20008;-77
2024/04/11 01:51:34;;;;;;;7.53;3.35;;;3.00;99.90;;;;;;5358611;26;20008;-77
2024/04/11 01:54:00;;;;;;;7.45;3.35;;;3.00;99.90;;;;;;5375725;26;20015;-78
2024/04/11 01:56:25;;;;;;;4.20;2.90;;;3.00;99.90;;;;;;5375167;26;20019;-77
2024/04/11 01:58:52;;;;;;;4.50;2.83;;;2.90;99.90;;;;;;5375620;26;20410;-77
2024/04/11 02:01:20;;;;;;;5.28;3.03;;;2.80;99.90;;;;;;5375136;26;19996;-77
2024/04/11 02:03:45;;;;;;;5.20;2.60;;;2.60;99.90;;;;;;5367539;26;20010;-77
2024/04/11 02:06:14;;;;;;;5.55;2.90;;;2.40;99.90;;;;;;5394551;26;20512;-77
2024/04/11 02:08:41;;;;;;;4.07;2.92;;;2.30;99.90;;;;;;5370276;26;20024;-76
2024/04/11 02:11:07;;;;;;;4.00;3.00;;;2.30;99.90;;;;;;5374962;26;20027;-76
2024/04/11 02:13:32;;;;;;;5.40;3.20;;;2.40;99.90;;;;;;5374693;26;20039;-76
2024/04/11 02:16:02;;;;;;;6.95;3.25;;;2.60;99.90;;;;;;5375138;26;20010;-77
2024/04/11 02:18:29;;;;;;;7.13;3.10;;;2.80;99.90;;;;;;5373324;26;20007;-77
2024/04/11 02:20:54;;;;;;;5.22;3.47;;;2.80;99.90;;;;;;5374971;26;20011;-77
2024/04/11 02:23:20;;;;;;;5.35;3.28;;;2.80;99.90;;;;;;5374152;26;19996;-77
2024/04/11 02:25:46;;;;;;;5.28;2.92;;;2.80;99.90;;;;;;5374452;26;20001;-77
2024/04/11 02:28:13;;;;;;;6.28;3.40;;;2.80;99.90;;;;;;5374630;26;20019;-76
2024/04/11 02:30:39;;;;;;;4.03;2.95;;;2.70;99.90;;;;;;5374467;26;20032;-77
2024/04/11 02:33:04;;;;;;;5.18;3.05;;;2.70;99.90;;;;;;5374055;26;20356;-77
2024/04/11 02:35:30;;;;;;;7.32;3.20;;;2.70;99.90;;;;;;5375303;26;20020;-76
2024/04/11 02:37:56;;;;;;;8.52;3.80;;;2.80;99.90;;;;;;5375011;26;20073;-76
2024/04/11 02:40:22;;;;;;;5.53;2.97;;;2.80;99.90;;;;;;5374758;26;19996;-77
2024/04/11 02:42:47;;;;;;;8.05;3.60;;;2.80;99.90;;;;;;5374660;26;19997;-77
2024/04/11 02:45:15;;;;;;;8.40;3.85;;;2.80;99.90;;;;;;5375220;26;19996;-77
2024/04/11 02:47:41;;;;;;;4.30;2.85;;;2.70;99.90;;;;;;5373773;26;20482;-77
2024/04/11 02:50:09;;;;;;;6.93;3.28;;;2.60;99.90;;;;;;5374290;26;20008;-77
2024/04/11 02:52:40;;;;;;;9.70;4.03;;;2.50;99.90;;;;;;5375174;26;19993;-77
2024/04/11 02:55:08;;;;;;;7.88;3.92;;;2.40;99.90;;;;;;5358674;26;20011;-77
2024/04/11 02:57:34;;;;;;;6.38;4.38;;;2.40;99.90;;;;;;5374564;26;20011;-77
2024/04/11 03:00:00;;;;;;;5.78;3.83;;;2.50;99.90;;;;;;5374288;26;20012;-76
2024/04/11 03:02:28;;;;;;;8.25;3.50;;;2.40;99.90;;;;;;5373528;26;20015;-76
2024/04/11 03:04:56;;;;;;;5.55;3.05;;;2.30;99.90;;;;;;5373964;26;19996;-76
2024/04/11 03:07:22;;;;;;;6.07;3.20;;;2.20;99.90;;;;;;5377438;26;20493;-76
2024/04/11 03:09:48;;;;;;;7.80;3.45;;;2.10;99.90;;;;;;5377101;26;20072;-76
2024/04/11 03:12:14;;;;;;;3.90;3.25;;;2.10;99.90;;;;;;5376694;26;20443;-77
2024/04/11 03:14:40;;;;;;;5.72;4.40;;;2.10;99.90;;;;;;5377502;26;20000;-76
2024/04/11 03:17:05;;;;;;;7.88;4.05;;;2.20;99.90;;;;;;5377248;26;20000;-76
2024/04/11 03:19:31;;;;;;;7.47;4.35;;;2.40;99.90;;;;;;5377548;26;20000;-77
2024/04/11 03:21:57;;;;;;;9.40;3.95;;;2.50;99.90;;;;;;5384643;26;20008;-77
2024/04/11 03:24:23;;;;;;;5.57;3.63;;;2.40;99.90;;;;;;5387641;26;20008;-77
2024/04/11 03:26:48;;;;;;;6.28;3.50;;;2.30;99.90;;;;;;5385670;26;20000;-78
2024/04/11 03:29:15;;;;;;;10.05;3.38;;;2.40;99.90;;;;;;5377008;26;20689;-77
2024/04/11 03:31:44;;;;;;;6.53;3.90;;;2.60;99.90;;;;;;5377130;26;19996;-77
2024/04/11 03:34:10;;;;;;;7.53;3.58;;;2.60;99.90;;;;;;5377455;26;20004;-76
2024/04/11 03:36:35;;;;;;;4.28;3.45;;;2.60;99.90;;;;;;5385700;26;20019;-77
2024/04/11 03:39:11;;;;;;;6.35;3.13;;;2.50;99.90;;;;;;5378333;26;20016;-77
2024/04/11 03:41:49;;;;;;;9.43;4.43;;;2.40;99.90;;;;;;5377259;26;19996;-78
2024/04/11 03:44:15;;;;;;;7.60;3.78;;;2.20;99.90;;;;;;5377793;26;20004;-78
2024/04/11 03:46:41;;;;;;;6.57;3.60;;;2.10;99.90;;;;;;5373859;26;20035;-77
2024/04/11 03:49:07;;;;;;;5.88;3.25;;;2.00;99.90;;;;;;5354993;26;20001;-76
2024/04/11 03:51:33;;;;;;;6.80;3.58;;;2.00;99.90;;;;;;5373388;26;20015;-77
2024/04/11 03:54:00;;;;;;;4.00;3.10;;;2.00;99.90;;;;;;5374388;26;20000;-76
2024/04/11 03:56:27;;;;;;;9.40;2.88;;;2.20;99.90;;;;;;5373997;26;20059;-77
2024/04/11 03:58:56;;;;;;;6.25;3.53;;;2.30;99.90;;;;;;5375782;26;20008;-76
2024/04/11 04:01:22;;;;;;;8.00;3.00;;;2.30;99.90;;;;;;5369654;26;20300;-77
2024/04/11 04:03:50;;;;;;;4.75;2.88;;;2.30;99.90;;;;;;5375609;26;20004;-77
2024/04/11 04:06:16;;;;;;;4.68;3.38;;;2.10;99.90;;;;;;5373624;26;20000;-77
2024/04/11 04:08:51;;;;;;;8.05;3.78;;;2.10;99.90;;;;;;5378313;26;20066;-77
2024/04/11 04:11:20;;;;;;;7.20;3.95;;;2.20;99.90;;;;;;5377865;26;20000;-77
2024/04/11 04:13:47;;;;;;;7.43;3.38;;;2.40;99.90;;;;;;5372147;26;20019;-77
2024/04/11 04:16:16;;;;;;;29.08;4.45;;;2.40;99.90;;;;;;5378291;26;20000;-77
2024/04/11 04:18:52;;;;;;;15.27;4.43;;;2.40;99.90;;;;;;5375726;26;20000;-77
2024/04/11 04:21:20;;;;;;;6.40;3.67;;;2.50;99.90;;;;;;5377826;26;20007;-76
2024/04/11 04:23:48;;;;;;;13.60;3.80;;;2.40;99.90;;;;;;5377860;26;20008;-76
2024/04/11 04:26:19;;;;;;;9.57;3.25;;;2.40;99.90;;;;;;5378239;26;20032;-75
2024/04/11 04:28:45;;;;;;;11.50;4.07;;;2.40;99.90;;;;;;5408243;26;19992;-74
2024/04/11 04:31:20;;;;;;;3.97;3.05;;;2.20;99.90;;;;;;5412742;26;20014;-75
2024/04/11 04:33:50;;;;;;;4.75;3.00;;;2.20;99.90;;;;;;5412213;26;20016;-76
2024/04/11 04:36:18;;;;;;;12.18;3.88;;;2.10;99.90;;;;;;5410534;26;20009;-75
2024/04/11 04:38:45;;;;;;;8.18;4.00;;;2.20;99.90;;;;;;5410161;26;20820;-74
2024/04/11 04:41:14;;;;;;;7.88;3.63;;;2.20;99.90;;;;;;5412181;26;20046;-75
2024/04/11 04:43:42;;;;;;;7.97;3.63;;;2.30;99.90;;;;;;5412258;26;20003;-75
2024/04/11 04:46:08;;;;;;;10.63;4.00;;;2.10;99.90;;;;;;5410782;26;20464;-76
2024/04/11 04:48:34;;;;;;;4.97;3.67;;;2.10;99.90;;;;;;5409566;26;20453;-75
2024/04/11 04:51:00;;;;;;;11.88;4.18;;;2.20;99.90;;;;;;5409955;26;20037;-75
2024/04/11 04:53:26;;;;;;;6.40;4.05;;;2.20;99.90;;;;;;5411162;26;19996;-75
2024/04/11 04:55:54;;;;;;;6.47;4.15;;;2.30;99.90;;;;;;5410714;26;19999;-75
2024/04/11 04:58:20;;;;;;;7.43;3.95;;;2.40;99.90;;;;;;5409384;26;19999;-76
2024/04/11 05:00:46;;;;;;;13.80;3.70;;;2.50;99.90;;;;;;5395947;26;20026;-75
2024/04/11 05:03:12;;;;;;;7.40;3.97;;;2.50;99.90;;;;;;5409379;26;19999;-75
2024/04/11 05:05:40;;;;;;;7.25;3.97;;;2.40;99.90;;;;;;5423935;26;20036;-75
2024/04/11 05:08:13;;;;;;;7.68;3.28;;;2.40;99.90;;;;;;5403709;26;20069;-75
2024/04/11 05:10:43;;;;;;;4.47;3.33;;;2.50;99.90;;;;;;5408329;26;20340;-75
2024/04/11 05:13:12;;;;;;;5.97;3.45;;;2.60;99.90;;;;;;5406264;26;20072;-75
2024/04/11 05:15:40;;;;;;;13.20;4.18;;;2.80;99.90;;;;;;5406075;26;20637;-75
2024/04/11 05:18:06;;;;;;;5.53;3.05;;;3.00;99.90;;;;;;5410080;26;20075;-76
2024/04/11 05:20:33;;;;;;;5.70;3.22;;;3.00;99.90;;;;;;5411020;26;20015;-74
2024/04/11 05:22:59;;;;;;;3.50;2.95;;;2.90;99.90;;;;;;5410669;26;20640;-74
2024/04/11 05:25:26;;;;;;;10.10;3.28;;;2.90;99.90;;;;;;5410516;26;20004;-73
2024/04/11 05:27:53;;;;;;;6.78;3.53;;;3.00;99.90;;;;;;5408550;26;20015;-74
2024/04/11 05:30:19;;;;;;;6.60;3.17;;;3.00;99.90;;;;;;5410424;26;20009;-73
2024/04/11 05:32:46;;;;;;;10.90;3.55;;;3.10;99.90;;;;;;5409855;26;19991;-73
2024/04/11 05:35:13;;;;;;;5.43;3.58;;;3.20;99.90;;;;;;5409980;26;20007;-73
2024/04/11 05:37:44;;;;;;;6.68;3.33;;;3.40;99.90;;;;;;5410874;26;19995;-74
2024/04/11 05:40:12;;;;;;;4.97;3.38;;;3.50;99.90;;;;;;5411169;26;20065;-74
2024/04/11 05:42:45;;;;;;;5.78;3.00;;;3.80;99.90;;;;;;5410618;26;19999;-74
2024/04/11 05:45:19;;;;;;;6.70;3.47;;;4.00;99.90;;;;;;5409282;26;20079;-73
2024/04/11 05:47:47;;;;;;;11.50;4.75;;;4.20;99.90;;;;;;5401079;26;19999;-73
2024/04/11 05:50:17;;;;;;;7.22;3.95;;;4.40;99.90;;;;;;5399105;26;20015;-73
2024/04/11 05:52:43;;;;;;;6.78;3.00;;;4.40;99.90;;;;;;5410200;26;20007;-73
2024/04/11 05:55:12;;;;;;;5.25;3.17;;;4.50;99.90;;;;;;5405597;26;19999;-74
2024/04/11 05:57:39;;;;;;;8.95;3.63;;;4.60;99.90;;;;;;5408368;26;19996;-75
2024/04/11 06:00:08;;;;;;;13.48;5.07;;;4.70;99.90;;;;;;5406016;26;20007;-74
2024/04/11 06:02:38;;;;;;;8.15;3.22;;;4.70;99.90;;;;;;5408107;26;20081;-74
2024/04/11 06:05:06;;;;;;;9.27;3.10;;;4.80;99.90;;;;;;5410276;26;20097;-74
2024/04/11 06:07:32;;;;;;;5.85;3.10;;;4.80;99.90;;;;;;5410544;26;19999;-74
2024/04/11 06:10:00;;;;;;;9.48;3.33;;;4.90;99.90;;;;;;5395969;26;20038;-75
2024/04/11 06:12:26;;;;;;;7.70;3.53;;;5.00;99.90;;;;;;5406565;26;20526;-75
2024/04/11 06:14:53;;;;;;;7.60;3.65;;;5.30;99.90;;;;;;5407223;26;20456;-75
2024/04/11 06:17:20;;;;;;;6.22;3.33;;;5.40;99.90;;;;;;5405233;26;21028;-74
2024/04/11 06:19:45;;;;;;;10.30;3.47;;;5.60;99.90;;;;;;5406273;26;20944;-73
2024/04/11 06:22:11;;;;;;;5.60;3.38;;;5.70;99.90;;;;;;5407190;26;19995;-73
2024/04/11 06:24:37;;;;;;;9.68;3.60;;;5.80;94.30;;;;;;5407094;26;20398;-74
2024/04/11 06:27:05;;;;;;;8.73;3.53;;;5.70;42.20;;;;;;5406825;26;20014;-74
2024/04/11 06:29:37;;;;;;;10.82;3.35;;;5.80;24.60;;;;;;5406978;26;20012;-74
2024/04/11 06:32:12;;;;;;;9.23;3.50;;;5.90;11.60;;;;;;5406494;26;20000;-75
2024/04/11 06:34:43;;;;;;;7.57;3.97;;;6.00;5.00;;;;;;5392810;26;20015;-74
2024/04/11 06:37:12;;;;;;;8.32;3.22;;;6.10;1.00;;;;;;5407167;26;20022;-74
2024/04/11 06:39:38;;;;;;;11.57;4.28;;;6.20;1.00;;;;;;5407290;26;20513;-74
2024/04/11 06:42:13;;;;;;;5.20;3.42;;;6.30;1.00;;;;;;5417780;26;20003;-74
2024/04/11 06:44:48;;;;;;;5.85;3.08;;;6.60;1.00;;;;;;5413205;26;20072;-75
2024/04/11 06:47:15;;;;;;;8.32;3.38;;;6.90;1.00;;;;;;5412902;26;20010;-75
2024/04/11 06:49:42;;;;;;;5.97;3.08;;;7.00;1.00;;;;;;5411219;26;19996;-74
2024/04/11 06:52:16;;;;;;;9.95;3.05;;;7.20;1.00;;;;;;5413397;26;19999;-75
2024/04/11 06:54:46;;;;;;;10.25;2.90;;;7.40;99.90;;;;;;5412859;26;20016;-74
2024/04/11 06:57:14;;;;;;;5.82;3.40;;;7.60;99.90;;;;;;5413269;26;20019;-74
2024/04/11 06:59:40;;;;;;;8.43;3.13;;;7.60;99.90;;;;;;5412883;26;19999;-74
2024/04/11 07:02:07;;;;;;;8.07;2.88;;;7.70;99.90;;;;;;5412456;26;20010;-73
2024/04/11 07:04:33;;;;;;;4.88;2.83;;;7.70;99.90;;;;;;5412238;26;20073;-74
2024/04/11 07:07:00;;;;;;;6.22;2.70;;;7.80;99.90;;;;;;5411969;26;20007;-74
2024/04/11 07:09:37;;;;;;;4.88;2.47;;;7.70;99.90;;;;;;5413208;26;20003;-74
2024/04/11 07:12:10;;;;;;;7.05;2.85;;;8.00;99.90;;;;;;5412893;26;19999;-74
2024/04/11 07:14:42;;;;;;;6.28;2.67;;;8.10;99.90;;;;;;5412660;26;20443;-74
2024/04/11 07:17:18;;;;;;;5.78;2.65;;;8.30;99.90;;;;;;5389725;26;19999;-74
2024/04/11 07:19:44;;;;;;;6.90;3.03;;;8.40;99.90;;;;;;5412338;26;20044;-73
2024/04/11 07:22:09;;;;;;;6.30;2.83;;;8.40;99.90;;;;;;5412096;26;20440;-74
2024/04/11 07:24:38;;;;;;;6.00;2.40;;;8.30;99.90;;;;;;5412860;26;19991;-74
2024/04/11 07:27:11;;;;;;;8.48;2.50;;;8.30;99.90;;;;;;5406195;26;19997;-74
2024/04/11 07:29:38;;;;;;;7.80;3.30;;;8.40;99.90;;;;;;5396827;26;20068;-74
2024/04/11 07:32:05;;;;;;;6.13;3.20;;;8.50;99.90;;;;;;5411808;26;20032;-74
2024/04/11 07:34:31;;;;;;;5.30;2.72;;;8.60;99.90;;;;;;5411995;26;20727;-73
2024/04/11 07:36:56;;;;;;;5.30;2.45;;;8.80;99.90;;;;;;5412481;26;20003;-74
2024/04/11 07:39:22;;;;;;;4.13;2.28;;;9.10;99.90;;;;;;5412676;26;20120;-74
2024/04/11 07:42:00;;;;;;;8.52;2.90;;;9.20;99.90;;;;;;5412322;26;20452;-74
2024/04/11 07:44:25;;;;;;;6.65;2.50;;;9.10;99.90;;;;;;5412316;26;20006;-74
2024/04/11 07:46:53;;;;;;;6.85;2.72;;;9.60;99.90;;;;;;5408266;26;19995;-74
2024/04/11 07:49:19;;;;;;;8.70;2.47;;;10.10;99.90;;;;;;5412297;26;20000;-74
2024/04/11 07:51:45;;;;;;;8.93;1.92;;;10.30;99.90;;;;;;5411445;26;19999;-72
2024/04/11 07:54:15;;;;;;;6.22;2.25;;;10.40;99.90;;;;;;5412748;26;20045;-73
2024/04/11 07:56:41;;;;;;;6.20;1.85;;;10.70;99.90;;;;;;5411933;26;20004;-74
2024/04/11 07:59:11;;;;;;;4.32;1.88;;;11.20;99.90;;;;;;5412794;26;20010;-73
2024/04/11 08:01:37;;;;;;;9.13;2.30;;;11.50;99.90;;;;;;5410266;26;19999;-73
2024/04/11 08:04:05;;;;;;;6.28;1.90;;;11.40;99.90;;;;;;5412393;26;20580;-74
2024/04/11 08:06:31;;;;;;;5.05;1.90;;;11.60;99.90;;;;;;5412106;26;19999;-74
2024/04/11 08:08:57;;;;;;;6.63;1.75;;;11.30;99.90;;;;;;5413221;26;19995;-73
2024/04/11 08:11:24;;;;;;;7.03;1.83;;;11.30;99.90;;;;;;5414081;26;19996;-74
2024/04/11 08:13:52;;;;;;;6.80;1.90;;;11.30;99.90;;;;;;5389615;26;20012;-74
2024/04/11 08:16:19;;;;;;;1.95;1.67;;;11.60;99.90;;;;;;5412186;26;20431;-74
2024/04/11 08:18:46;;;;;;;9.77;2.58;;;11.40;99.90;;;;;;5410721;26;20008;-74
2024/04/11 08:21:13;;;;;;;2.50;1.75;;;11.10;99.90;;;;;;5412451;26;20746;-73
2024/04/11 08:23:40;;;;;;;3.00;1.58;;;11.30;99.90;;;;;;5411827;26;20022;-73
2024/04/11 08:26:07;;;;;;;6.00;1.92;;;11.70;99.90;;;;;;5412364;26;20561;-72
2024/04/11 08:28:37;;;;;;;2.80;2.17;;;12.20;99.90;;;;;;5411197;26;20003;-73
2024/04/11 08:31:06;;;;;;;4.70;1.98;;;11.90;99.90;;;;;;5411873;26;20004;-73
2024/04/11 08:33:36;;;;;;;5.72;1.80;;;11.50;99.90;;;;;;5410623;26;20004;-73
2024/04/11 08:36:08;;;;;;;5.32;1.63;;;11.30;99.90;;;;;;5411221;26;20066;-74
2024/04/11 08:38:40;;;;;;;6.10;1.83;;;11.30;99.90;;;;;;5411737;26;20010;-73
2024/04/11 08:41:13;;;;;;;4.07;1.33;;;11.30;99.90;;;;;;5411616;26;20000;-73
2024/04/11 08:43:40;;;;;;;5.22;1.58;;;11.30;99.90;;;;;;5411989;26;20096;-74
2024/04/11 08:46:10;;;;;;;13.73;2.22;;;11.40;99.90;;;;;;5411401;26;20004;-74
2024/04/11 08:48:39;;;;;;;13.27;1.73;;;11.30;99.90;;;;;;5411070;26;20007;-73
2024/04/11 08:51:22;;;;;;;7.35;1.63;;;11.40;99.90;;;;;;5410885;26;20015;-72
2024/04/11 08:53:50;;;;;;;6.95;1.85;;;11.50;99.90;;;;;;5411649;26;20245;-74
2024/04/11 08:56:17;;;;;;;4.47;1.33;;;11.70;99.90;;;;;;5414966;26;20003;-74
2024/04/11 08:58:47;;;;;;;4.13;1.40;;;11.90;99.90;;;;;;5433131;26;20007;-73
2024/04/11 09:01:18;;;;;;;10.60;1.83;;;12.10;99.90;;;;;;5412489;26;20004;-74
2024/04/11 09:03:48;;;;;;;6.10;1.90;;;11.90;99.90;;;;;;5432485;26;19996;-74
2024/04/11 09:06:14;;;;;;;11.15;1.70;;;12.00;99.90;;;;;;5411946;26;19999;-74
2024/04/11 09:08:41;;;;;;;3.63;1.30;;;12.30;99.90;;;;;;5410429;26;20003;-74
2024/04/11 09:11:07;;;;;;;4.53;1.40;;;12.50;99.90;;;;;;5411198;26;20027;-73
2024/04/11 09:13:33;;;;;;;7.85;1.45;;;12.60;99.90;;;;;;5431621;26;20444;-74
2024/04/11 09:16:04;;;;;;;5.15;1.23;;;13.00;99.90;;;;;;5411449;26;20014;-74
2024/04/11 09:18:30;;;;;;;4.65;0.93;;;13.10;77.80;;;;;;5409856;26;20036;-74
2024/04/11 09:21:06;;;;;;;5.25;1.20;;;13.20;98.20;;;;;;5411363;26;20000;-75
2024/04/11 09:23:46;;;;;;;3.58;0.98;;;13.30;79.50;;;;;;5410969;26;20356;-74
2024/04/11 09:26:13;;;;;;;7.80;1.27;;;13.30;12.70;;;;;;5388299;26;20333;-73
2024/04/11 09:28:39;;;;;;;3.65;1.20;;;13.10;31.50;;;;;;5374953;26;20020;-74
2024/04/11 09:31:04;;;;;;;5.45;1.40;;;13.40;76.40;;;;;;5375300;26;20004;-74
2024/04/11 09:33:34;;;;;;;6.32;1.10;;;13.70;71.70;;;;;;5374640;26;20000;-74
2024/04/11 09:36:03;;;;;;;5.82;1.20;;;13.60;6.60;;;;;;5368964;26;19996;-74
2024/04/11 09:38:31;;;;;;;5.88;1.10;;;13.80;64.20;;;;;;5375935;26;20086;-74
2024/04/11 09:40:57;;;;;;;6.90;1.30;;;14.10;1.00;;;;;;5374856;26;20381;-74
2024/04/11 09:43:27;;;;;;;6.15;1.35;;;14.40;2.60;;;;;;5375413;26;20000;-74
2024/04/11 09:46:03;;;;;;;3.67;1.00;;;14.60;99.90;;;;;;5375845;26;20028;-73
2024/04/11 09:48:31;;;;;;;2.13;1.00;;;14.60;1.00;;;;;;5371391;26;20011;-74
2024/04/11 09:51:00;;;;;;;2.63;1.10;;;14.40;1.00;;;;;;5375745;26;20003;-74
2024/04/11 09:53:28;;;;;;;5.95;1.17;;;14.40;99.90;;;;;;5375754;26;19996;-74
2024/04/11 09:56:04;;;;;;;7.97;1.30;;;14.90;99.90;;;;;;5375316;26;19996;-74
2024/04/11 09:58:33;;;;;;;6.05;1.20;;;15.50;1.00;;;;;;5374873;26;20450;-74
2024/04/11 10:01:05;;;;;;;3.33;1.20;;;15.50;99.90;;;;;;5375655;26;20086;-74
2024/04/11 10:03:39;;;;;;;5.95;1.25;;;15.90;99.90;;;;;;5372577;26;20014;-74
2024/04/11 10:06:13;;;;;;;10.40;1.77;;;15.60;99.90;;;;;;5375746;26;20032;-74
2024/04/11 10:08:39;;;;;;;7.22;1.23;;;17.20;99.90;;;;;;5375011;26;20015;-74
2024/04/11 10:11:10;;;;;;;5.80;1.48;;;17.60;99.90;;;;;;5375108;26;20000;-74
2024/04/11 10:13:40;;;;;;;2.60;0.63;;;17.70;99.90;;;;;;5374708;26;20001;-73
2024/04/11 10:16:21;;;;;;;4.00;0.80;;;17.10;99.90;;;;;;5374447;26;20403;-73
2024/04/11 10:18:53;;;;;;;2.40;0.50;;;16.30;99.90;;;;;;5374618;26;20004;-73
2024/04/11 10:21:29;;;;;;;2.80;0.98;;;15.90;78.20;;;;;;5373906;26;20000;-74
2024/04/11 10:23:55;;;;;;;5.13;1.05;;;16.20;99.90;;;;;;5375377;26;20000;-73
2024/04/11 10:26:32;;;;;;;3.10;0.73;;;15.90;99.90;;;;;;5375760;26;20010;-73
2024/04/11 10:29:26;;;;;;;4.50;0.95;;;16.50;99.90;;;;;;5408477;26;20011;-73
2024/04/11 10:31:56;;;;;;;4.05;0.90;;;16.00;99.90;;;;;;5409085;26;20012;-74
2024/04/11 10:34:34;;;;;;;5.22;0.95;;;16.10;99.90;;;;;;5410211;26;19999;-73
2024/04/11 10:37:03;;;;;;;5.78;1.23;;;16.00;99.90;;;;;;5409423;26;19995;-74
2024/04/11 10:39:35;;;;;;;7.85;1.27;;;15.60;99.90;;;;;;5410877;26;20473;-74
2024/04/11 10:42:02;;;;;;;4.72;1.10;;;15.90;96.80;;;;;;5410377;26;20465;-73
2024/04/11 10:44:28;;;;;;;9.02;1.10;;;16.80;84.80;;;;;;5410457;26;20517;-76
2024/04/11 10:46:55;;;;;;;4.47;1.45;;;17.40;99.90;;;;;;5410002;26;20004;-74
2024/04/11 10:49:28;;;;;;;5.93;1.20;;;16.50;87.10;;;;;;5409891;26;20016;-73
2024/04/11 10:51:58;;;;;;;7.22;1.23;;;16.20;99.90;;;;;;5410340;26;20076;-75
2024/04/11 10:54:26;;;;;;;5.68;1.15;;;16.80;99.90;;;;;;5435870;26;20027;-74
2024/04/11 10:56:54;;;;;;;5.95;1.48;;;16.10;99.90;;;;;;5410470;26;20321;-74
2024/04/11 10:59:27;;;;;;;5.13;1.13;;;16.40;99.90;;;;;;5410623;26;20035;-74
2024/04/11 11:02:07;;;;;;;2.88;1.00;;;17.30;99.90;;;;;;5409302;26;20000;-73
2024/04/11 11:04:40;;;;;;;9.25;1.30;;;17.50;99.90;;;;;;5409906;26;20040;-74
2024/04/11 11:07:12;;;;;;;9.35;1.35;;;15.70;99.90;;;;;;5388438;26;20019;-72
2024/04/11 11:09:45;;;;;;;4.55;1.20;;;15.30;99.90;;;;;;5409897;26;20036;-74
2024/04/11 11:12:11;;;;;;;8.48;1.52;;;15.30;99.90;;;;;;5387778;26;20011;-74
2024/04/11 11:14:37;;;;;;;6.00;1.35;;;16.20;99.90;;;;;;5410607;26;20004;-73
2024/04/11 11:17:07;;;;;;;7.15;1.40;;;16.70;99.90;;;;;;5409365;26;20000;-73
2024/04/11 11:19:34;;;;;;;7.05;1.20;;;17.40;88.60;;;;;;5409962;26;20003;-74
2024/04/11 11:22:00;;;;;;;2.08;0.95;;;18.20;1.60;;;;;;5410481;26;19996;-74
2024/04/11 11:24:29;;;;;;;6.45;1.20;;;17.80;12.60;;;;;;5409730;26;19996;-72
2024/04/11 11:27:00;;;;;;;4.38;1.05;;;17.40;99.90;;;;;;5406249;26;20040;-73
2024/04/11 11:29:27;;;;;;;6.50;1.10;;;17.80;99.90;;;;;;5378320;26;20441;-73
2024/04/11 11:32:01;;;;;;;4.07;1.10;;;18.40;21.50;;;;;;5376633;26;20008;-74
2024/04/11 11:34:27;;;;;;;2.67;0.90;;;18.20;71.50;;;;;;5377602;26;20000;-73
2024/04/11 11:36:59;;;;;;;7.10;1.42;;;17.60;6.60;;;;;;5377444;26;20004;-74
2024/04/11 11:39:42;;;;;;;11.73;1.75;;;18.20;99.90;;;;;;5373204;26;20008;-74
2024/04/11 11:42:23;;;;;;;5.70;1.42;;;17.70;99.90;;;;;;5376331;26;20000;-73
2024/04/11 11:47:34;;;;;;;4.65;0.75;;;19.80;99.90;;;;;;5376618;26;20337;-74
2024/04/11 11:50:10;;;;;;;4.13;0.93;;;19.50;1.00;;;;;;5376811;26;20036;-74
2024/04/11 11:52:39;;;;;;;12.38;0.95;;;19.10;1.00;;;;;;5376766;26;20023;-73
2024/04/11 11:55:05;;;;;;;3.47;0.85;;;18.70;1.00;;;;;;5377474;26;20005;-73
2024/04/11 11:57:39;;;;;;;5.07;0.98;;;18.80;30.50;;;;;;5375927;26;19997;-73
2024/04/11 12:00:19;;;;;;;2.97;0.90;;;18.30;99.90;;;;;;5377044;26;20545;-73
2024/04/11 12:02:52;;;;;;;3.83;0.75;;;18.00;99.90;;;;;;5375955;26;20383;-74
2024/04/11 12:05:23;;;;;;;9.70;1.67;;;18.20;47.50;;;;;;5387921;26;20398;-73
2024/04/11 12:07:53;;;;;;;6.68;1.20;;;17.30;43.40;;;;;;5389429;26;20350;-73
2024/04/11 12:10:29;;;;;;;7.63;1.42;;;17.00;99.90;;;;;;5376650;26;20103;-73
2024/04/11 12:13:30;;;;;;;4.20;0.90;;;17.20;99.90;;;;;;5375412;26;20028;-73
2024/04/11 12:15:48;;;;;;;7.82;1.70;;;17.50;75.60;;;;;;5355166;26;20015;-74
2024/04/11 12:18:22;;;;;;;3.03;0.80;;;18.20;99.90;;;;;;5375232;26;20019;-74
2024/04/11 12:21:02;;;;;;;5.57;0.77;;;19.20;12.70;;;;;;5376172;26;20011;-74
2024/04/11 12:23:28;;;;;;;5.90;0.80;;;19.40;99.90;;;;;;5383966;26;20011;-73
2024/04/11 12:25:58;;;;;;;6.85;1.00;;;20.10;27.70;;;;;;5375956;26;20015;-73
2024/04/11 12:28:25;;;;;;;6.25;1.10;;;18.90;99.90;;;;;;5400630;26;20010;-73
2024/04/11 12:31:00;;;;;;;11.18;0.95;;;18.80;99.90;;;;;;5410236;26;20507;-74
2024/04/11 12:33:31;;;;;;;3.25;0.82;;;18.60;1.00;;;;;;5410914;26;20003;-74
2024/04/11 12:35:59;;;;;;;3.70;0.80;;;18.10;26.20;;;;;;5392765;26;20003;-73
2024/04/11 12:38:30;;;;;;;4.88;0.90;;;19.00;99.90;;;;;;5410726;26;19995;-73
2024/04/11 12:40:59;;;;;;;4.03;1.08;;;19.30;38.10;;;;;;5411461;26;19999;-73
2024/04/11 12:43:28;;;;;;;6.05;1.08;;;18.50;99.90;;;;;;5411935;26;20036;-73
2024/04/11 12:45:55;;;;;;;4.63;1.10;;;19.20;61.90;;;;;;5410315;26;20010;-74
2024/04/11 12:48:22;;;;;;;4.78;0.90;;;20.50;99.90;;;;;;5379487;26;20014;-74
2024/04/11 12:50:54;;;;;;;3.97;1.10;;;21.40;1.00;;;;;;5411429;26;20040;-74
2024/04/11 12:53:22;;;;;;;5.00;0.95;;;23.00;99.90;;;;;;5410319;26;19992;-73
2024/04/11 12:55:57;;;;;;;9.32;1.10;;;23.00;99.90;;;;;;5411547;26;20030;-73
2024/04/11 12:58:24;;;;;;;7.60;0.93;;;22.00;1.00;;;;;;5411347;26;20010;-73
2024/04/11 13:01:05;;;;;;;9.05;1.55;;;22.40;99.90;;;;;;5411369;26;20024;-73
2024/04/11 13:03:52;;;;;;;4.57;0.80;;;22.30;99.90;;;;;;5410504;26;20081;-73